Whites Xing, Indiana
Current Conditions -  °F | °C
As of 9:35 PM on Sunday 23 Nov 2014 (Local Time) from KDCY Reporting Station
Light Rain Light Rain  
Wind Chill: 57°   Ceiling: 800
Heat Index: 57°   Visibility: 10mi
Dew Point: 57°   Wind: 17mph
Humidity: 100%   Direction: 180°S
Pressure: 29.21"   Gusts: 23mph
Location:  39.0608°N, 87.1852°W
Report Text: KDCY 240235Z AUTO 18015G20KT 10SM -RA OVC008 14/14 A2921 RMK AO2 P0007 T01370137
Loading
Personal Weather Stations






























Interactive Weather Map New forecast layout! Learn more

10-Day Weather Forecast

Advertisements
Track Severe Weather on mobile